sensor_id;sensor_type;location;lat;lon;timestamp;P1;durP1;ratioP1;P2;durP2;ratioP2
27921;SDS011;15261;50.356;10.340;2023-04-25T00:00:25;7.70;;;6.88;;
27921;SDS011;15261;50.356;10.340;2023-04-25T00:02:50;7.68;;;6.95;;
27921;SDS011;15261;50.356;10.340;2023-04-25T00:05:16;7.47;;;6.88;;
27921;SDS011;15261;50.356;10.340;2023-04-25T00:07:42;7.78;;;6.95;;
27921;SDS011;15261;50.356;10.340;2023-04-25T00:10:08;8.07;;;7.18;;
27921;SDS011;15261;50.356;10.340;2023-04-25T00:12:35;8.60;;;7.05;;
27921;SDS011;15261;50.356;10.340;2023-04-25T00:15:01;7.75;;;7.03;;
27921;SDS011;15261;50.356;10.340;2023-04-25T00:17:28;7.78;;;7.18;;
27921;SDS011;15261;50.356;10.340;2023-04-25T00:19:54;9.80;;;7.40;;
27921;SDS011;15261;50.356;10.340;2023-04-25T00:22:20;8.30;;;7.32;;
27921;SDS011;15261;50.356;10.340;2023-04-25T00:24:46;7.72;;;7.03;;
27921;SDS011;15261;50.356;10.340;2023-04-25T00:27:12;9.23;;;7.45;;
27921;SDS011;15261;50.356;10.340;2023-04-25T00:29:37;7.55;;;6.85;;
27921;SDS011;15261;50.356;10.340;2023-04-25T00:32:03;7.57;;;6.88;;
27921;SDS011;15261;50.356;10.340;2023-04-25T00:34:29;8.45;;;6.90;;
27921;SDS011;15261;50.356;10.340;2023-04-25T00:36:54;9.20;;;7.40;;
27921;SDS011;15261;50.356;10.340;2023-04-25T00:39:20;7.65;;;6.95;;
27921;SDS011;15261;50.356;10.340;2023-04-25T00:41:46;8.07;;;7.38;;
27921;SDS011;15261;50.356;10.340;2023-04-25T00:44:12;7.93;;;7.18;;
27921;SDS011;15261;50.356;10.340;2023-04-25T00:46:38;7.95;;;7.25;;
27921;SDS011;15261;50.356;10.340;2023-04-25T00:49:04;9.10;;;7.20;;
27921;SDS011;15261;50.356;10.340;2023-04-25T00:51:30;10.32;;;7.50;;
27921;SDS011;15261;50.356;10.340;2023-04-25T00:53:57;8.88;;;7.97;;
27921;SDS011;15261;50.356;10.340;2023-04-25T00:56:23;8.52;;;7.78;;
27921;SDS011;15261;50.356;10.340;2023-04-25T00:58:48;8.40;;;7.70;;
27921;SDS011;15261;50.356;10.340;2023-04-25T05:10:57;10.15;;;7.43;;
27921;SDS011;15261;50.356;10.340;2023-04-25T05:35:30;9.60;;;8.63;;
27921;SDS011;15261;50.356;10.340;2023-04-25T05:37:56;11.45;;;9.02;;
27921;SDS011;15261;50.356;10.340;2023-04-25T05:40:21;9.23;;;8.38;;
27921;SDS011;15261;50.356;10.340;2023-04-25T05:42:47;10.18;;;8.63;;
27921;SDS011;15261;50.356;10.340;2023-04-25T05:45:16;11.00;;;9.27;;
27921;SDS011;15261;50.356;10.340;2023-04-25T05:47:42;8.02;;;7.18;;
27921;SDS011;15261;50.356;10.340;2023-04-25T05:50:11;8.48;;;6.65;;
27921;SDS011;15261;50.356;10.340;2023-04-25T05:52:36;12.57;;;6.85;;
27921;SDS011;15261;50.356;10.340;2023-04-25T05:55:02;8.05;;;6.22;;
27921;SDS011;15261;50.356;10.340;2023-04-25T05:57:28;9.02;;;5.63;;
27921;SDS011;15261;50.356;10.340;2023-04-25T05:59:53;8.52;;;5.22;;
27921;SDS011;15261;50.356;10.340;2023-04-25T06:02:22;7.78;;;6.57;;
27921;SDS011;15261;50.356;10.340;2023-04-25T06:04:49;9.70;;;8.32;;
27921;SDS011;15261;50.356;10.340;2023-04-25T06:07:16;9.05;;;5.40;;
27921;SDS011;15261;50.356;10.340;2023-04-25T06:09:42;8.68;;;4.72;;
27921;SDS011;15261;50.356;10.340;2023-04-25T06:12:08;7.85;;;5.90;;
27921;SDS011;15261;50.356;10.340;2023-04-25T06:14:34;7.78;;;4.72;;
27921;SDS011;15261;50.356;10.340;2023-04-25T06:17:00;9.85;;;4.88;;
27921;SDS011;15261;50.356;10.340;2023-04-25T06:19:31;7.05;;;4.22;;
27921;SDS011;15261;50.356;10.340;2023-04-25T06:22:09;9.02;;;5.00;;
27921;SDS011;15261;50.356;10.340;2023-04-25T06:24:35;6.40;;;4.60;;
27921;SDS011;15261;50.356;10.340;2023-04-25T06:27:01;7.30;;;4.38;;
27921;SDS011;15261;50.356;10.340;2023-04-25T06:29:26;9.25;;;4.72;;
27921;SDS011;15261;50.356;10.340;2023-04-25T06:31:52;8.05;;;4.57;;
27921;SDS011;15261;50.356;10.340;2023-04-25T06:34:18;6.65;;;4.93;;
27921;SDS011;15261;50.356;10.340;2023-04-25T06:36:45;7.15;;;4.10;;
27921;SDS011;15261;50.356;10.340;2023-04-25T06:39:11;6.57;;;4.60;;
27921;SDS011;15261;50.356;10.340;2023-04-25T06:41:39;6.57;;;4.82;;
27921;SDS011;15261;50.356;10.340;2023-04-25T06:44:05;10.95;;;5.45;;
27921;SDS011;15261;50.356;10.340;2023-04-25T06:46:31;8.55;;;4.80;;
27921;SDS011;15261;50.356;10.340;2023-04-25T06:48:57;9.35;;;4.45;;
27921;SDS011;15261;50.356;10.340;2023-04-25T06:51:25;8.55;;;3.95;;
27921;SDS011;15261;50.356;10.340;2023-04-25T06:53:53;8.73;;;4.50;;
27921;SDS011;15261;50.356;10.340;2023-04-25T06:56:19;7.95;;;4.03;;
27921;SDS011;15261;50.356;10.340;2023-04-25T06:58:46;7.53;;;3.72;;
27921;SDS011;15261;50.356;10.340;2023-04-25T07:01:11;8.60;;;3.65;;
27921;SDS011;15261;50.356;10.340;2023-04-25T07:03:37;4.47;;;3.28;;
27921;SDS011;15261;50.356;10.340;2023-04-25T07:06:03;7.93;;;3.60;;
27921;SDS011;15261;50.356;10.340;2023-04-25T07:08:29;9.05;;;3.38;;
27921;SDS011;15261;50.356;10.340;2023-04-25T07:10:54;4.80;;;3.50;;
27921;SDS011;15261;50.356;10.340;2023-04-25T07:13:20;4.53;;;3.58;;
27921;SDS011;15261;50.356;10.340;2023-04-25T07:15:46;5.88;;;3.78;;
27921;SDS011;15261;50.356;10.340;2023-04-25T07:18:13;5.72;;;3.53;;
27921;SDS011;15261;50.356;10.340;2023-04-25T07:20:38;4.40;;;3.38;;
27921;SDS011;15261;50.356;10.340;2023-04-25T07:23:04;5.85;;;3.70;;
27921;SDS011;15261;50.356;10.340;2023-04-25T07:25:30;7.18;;;4.10;;
27921;SDS011;15261;50.356;10.340;2023-04-25T07:27:56;5.00;;;3.40;;
27921;SDS011;15261;50.356;10.340;2023-04-25T07:30:22;5.70;;;3.15;;
27921;SDS011;15261;50.356;10.340;2023-04-25T07:32:48;8.18;;;3.55;;
27921;SDS011;15261;50.356;10.340;2023-04-25T07:35:15;3.45;;;3.00;;
27921;SDS011;15261;50.356;10.340;2023-04-25T07:37:41;4.05;;;2.90;;
27921;SDS011;15261;50.356;10.340;2023-04-25T07:40:06;10.63;;;3.25;;
27921;SDS011;15261;50.356;10.340;2023-04-25T07:42:34;4.05;;;3.05;;
27921;SDS011;15261;50.356;10.340;2023-04-25T07:45:00;3.30;;;3.00;;
27921;SDS011;15261;50.356;10.340;2023-04-25T07:47:26;4.60;;;3.35;;
27921;SDS011;15261;50.356;10.340;2023-04-25T07:49:52;3.80;;;2.83;;
27921;SDS011;15261;50.356;10.340;2023-04-25T07:52:19;4.35;;;3.25;;
27921;SDS011;15261;50.356;10.340;2023-04-25T07:54:44;4.53;;;2.80;;
27921;SDS011;15261;50.356;10.340;2023-04-25T07:57:10;5.10;;;2.90;;
27921;SDS011;15261;50.356;10.340;2023-04-25T07:59:36;9.50;;;3.30;;
27921;SDS011;15261;50.356;10.340;2023-04-25T08:02:01;5.97;;;2.88;;
27921;SDS011;15261;50.356;10.340;2023-04-25T08:04:27;2.80;;;2.60;;
27921;SDS011;15261;50.356;10.340;2023-04-25T08:06:53;3.95;;;2.53;;
27921;SDS011;15261;50.356;10.340;2023-04-25T08:09:19;3.63;;;2.67;;
27921;SDS011;15261;50.356;10.340;2023-04-25T08:11:46;3.85;;;2.67;;
27921;SDS011;15261;50.356;10.340;2023-04-25T08:14:12;5.00;;;2.70;;
27921;SDS011;15261;50.356;10.340;2023-04-25T08:16:38;5.53;;;3.00;;
27921;SDS011;15261;50.356;10.340;2023-04-25T08:19:04;6.88;;;2.78;;
27921;SDS011;15261;50.356;10.340;2023-04-25T08:21:33;3.20;;;2.80;;
27921;SDS011;15261;50.356;10.340;2023-04-25T08:23:59;6.55;;;2.67;;
27921;SDS011;15261;50.356;10.340;2023-04-25T08:26:25;3.28;;;2.70;;
27921;SDS011;15261;50.356;10.340;2023-04-25T08:28:51;4.07;;;2.80;;
27921;SDS011;15261;50.356;10.340;2023-04-25T08:31:16;4.00;;;3.05;;
27921;SDS011;15261;50.356;10.340;2023-04-25T08:33:45;9.73;;;3.65;;
27921;SDS011;15261;50.356;10.340;2023-04-25T08:36:11;11.82;;;3.50;;
27921;SDS011;15261;50.356;10.340;2023-04-25T08:38:37;5.78;;;3.85;;
27921;SDS011;15261;50.356;10.340;2023-04-25T08:41:03;3.47;;;2.95;;
27921;SDS011;15261;50.356;10.340;2023-04-25T08:43:30;3.67;;;2.67;;
27921;SDS011;15261;50.356;10.340;2023-04-25T08:45:59;3.20;;;2.50;;
27921;SDS011;15261;50.356;10.340;2023-04-25T08:48:28;5.78;;;3.00;;
27921;SDS011;15261;50.356;10.340;2023-04-25T08:50:58;2.67;;;2.42;;
27921;SDS011;15261;50.356;10.340;2023-04-25T08:53:31;8.35;;;2.70;;
27921;SDS011;15261;50.356;10.340;2023-04-25T08:55:58;3.05;;;2.50;;
27921;SDS011;15261;50.356;10.340;2023-04-25T08:58:27;3.75;;;2.67;;
27921;SDS011;15261;50.356;10.340;2023-04-25T09:00:53;3.80;;;2.40;;
27921;SDS011;15261;50.356;10.340;2023-04-25T09:03:22;3.60;;;2.70;;
27921;SDS011;15261;50.356;10.340;2023-04-25T09:05:50;3.50;;;2.30;;
27921;SDS011;15261;50.356;10.340;2023-04-25T09:08:17;3.20;;;2.72;;
27921;SDS011;15261;50.356;10.340;2023-04-25T09:10:43;3.20;;;2.80;;
27921;SDS011;15261;50.356;10.340;2023-04-25T09:13:10;8.45;;;3.10;;
27921;SDS011;15261;50.356;10.340;2023-04-25T09:15:50;3.60;;;3.00;;
27921;SDS011;15261;50.356;10.340;2023-04-25T09:18:26;2.88;;;2.67;;
27921;SDS011;15261;50.356;10.340;2023-04-25T09:20:53;4.78;;;2.75;;
27921;SDS011;15261;50.356;10.340;2023-04-25T09:23:20;2.95;;;2.67;;
27921;SDS011;15261;50.356;10.340;2023-04-25T09:25:48;4.55;;;2.80;;
27921;SDS011;15261;50.356;10.340;2023-04-25T09:28:27;2.65;;;2.42;;
27921;SDS011;15261;50.356;10.340;2023-04-25T09:30:56;6.60;;;3.28;;
27921;SDS011;15261;50.356;10.340;2023-04-25T09:33:29;2.90;;;2.70;;
27921;SDS011;15261;50.356;10.340;2023-04-25T09:36:03;3.03;;;2.72;;
27921;SDS011;15261;50.356;10.340;2023-04-25T09:38:29;5.55;;;2.83;;
27921;SDS011;15261;50.356;10.340;2023-04-25T09:41:05;2.70;;;2.50;;
27921;SDS011;15261;50.356;10.340;2023-04-25T09:43:32;5.38;;;2.67;;
27921;SDS011;15261;50.356;10.340;2023-04-25T09:45:58;3.08;;;2.78;;
27921;SDS011;15261;50.356;10.340;2023-04-25T09:48:25;8.75;;;3.40;;
27921;SDS011;15261;50.356;10.340;2023-04-25T09:51:13;8.35;;;3.17;;
27921;SDS011;15261;50.356;10.340;2023-04-25T09:53:39;4.13;;;2.85;;
27921;SDS011;15261;50.356;10.340;2023-04-25T09:56:10;3.08;;;2.78;;
27921;SDS011;15261;50.356;10.340;2023-04-25T09:58:37;2.78;;;2.45;;
27921;SDS011;15261;50.356;10.340;2023-04-25T10:01:08;3.03;;;2.50;;
27921;SDS011;15261;50.356;10.340;2023-04-25T10:03:38;3.00;;;2.67;;
27921;SDS011;15261;50.356;10.340;2023-04-25T10:06:07;8.85;;;3.20;;
27921;SDS011;15261;50.356;10.340;2023-04-25T10:08:37;2.92;;;2.60;;
27921;SDS011;15261;50.356;10.340;2023-04-25T10:11:03;2.97;;;2.78;;
27921;SDS011;15261;50.356;10.340;2023-04-25T10:13:31;3.03;;;2.60;;
27921;SDS011;15261;50.356;10.340;2023-04-25T10:15:58;3.85;;;2.95;;
27921;SDS011;15261;50.356;10.340;2023-04-25T10:18:25;3.20;;;2.90;;
27921;SDS011;15261;50.356;10.340;2023-04-25T10:20:53;6.63;;;3.15;;
27921;SDS011;15261;50.356;10.340;2023-04-25T10:23:23;6.68;;;3.20;;
27921;SDS011;15261;50.356;10.340;2023-04-25T10:25:50;4.30;;;3.35;;
27921;SDS011;15261;50.356;10.340;2023-04-25T10:28:17;2.92;;;2.70;;
27921;SDS011;15261;50.356;10.340;2023-04-25T10:33:37;2.80;;;2.40;;
27921;SDS011;15261;50.356;10.340;2023-04-25T10:36:14;2.78;;;2.58;;
27921;SDS011;15261;50.356;10.340;2023-04-25T10:38:46;2.85;;;2.58;;
27921;SDS011;15261;50.356;10.340;2023-04-25T10:41:13;2.65;;;2.20;;
27921;SDS011;15261;50.356;10.340;2023-04-25T10:43:42;5.75;;;2.42;;
27921;SDS011;15261;50.356;10.340;2023-04-25T10:48:50;4.63;;;2.50;;
27921;SDS011;15261;50.356;10.340;2023-04-25T10:53:46;4.28;;;2.25;;
27921;SDS011;15261;50.356;10.340;2023-04-25T10:56:21;2.55;;;2.10;;
27921;SDS011;15261;50.356;10.340;2023-04-25T10:58:49;3.20;;;2.17;;
27921;SDS011;15261;50.356;10.340;2023-04-25T11:01:19;2.92;;;2.08;;
27921;SDS011;15261;50.356;10.340;2023-04-25T11:03:46;1.70;;;1.60;;
27921;SDS011;15261;50.356;10.340;2023-04-25T11:09:11;4.00;;;2.33;;
27921;SDS011;15261;50.356;10.340;2023-04-25T11:11:40;7.70;;;2.08;;
27921;SDS011;15261;50.356;10.340;2023-04-25T11:14:06;2.38;;;1.92;;
27921;SDS011;15261;50.356;10.340;2023-04-25T11:16:32;7.35;;;2.47;;
27921;SDS011;15261;50.356;10.340;2023-04-25T11:18:58;5.82;;;2.28;;
27921;SDS011;15261;50.356;10.340;2023-04-25T11:21:26;5.82;;;2.47;;
27921;SDS011;15261;50.356;10.340;2023-04-25T11:23:54;1.90;;;1.80;;
27921;SDS011;15261;50.356;10.340;2023-04-25T11:26:21;2.72;;;2.10;;
27921;SDS011;15261;50.356;10.340;2023-04-25T11:28:55;2.33;;;2.13;;
27921;SDS011;15261;50.356;10.340;2023-04-25T11:31:44;7.90;;;2.33;;
27921;SDS011;15261;50.356;10.340;2023-04-25T11:34:10;3.17;;;2.60;;
27921;SDS011;15261;50.356;10.340;2023-04-25T11:36:37;2.17;;;1.92;;
27921;SDS011;15261;50.356;10.340;2023-04-25T11:39:04;2.30;;;2.10;;
27921;SDS011;15261;50.356;10.340;2023-04-25T11:41:31;2.38;;;2.00;;
27921;SDS011;15261;50.356;10.340;2023-04-25T11:46:42;3.17;;;2.40;;
27921;SDS011;15261;50.356;10.340;2023-04-25T11:49:15;6.32;;;2.42;;
27921;SDS011;15261;50.356;10.340;2023-04-25T11:51:52;4.50;;;2.47;;
27921;SDS011;15261;50.356;10.340;2023-04-25T11:54:18;4.70;;;2.60;;
27921;SDS011;15261;50.356;10.340;2023-04-25T11:56:51;2.92;;;2.33;;
27921;SDS011;15261;50.356;10.340;2023-04-25T11:59:26;4.32;;;2.40;;
27921;SDS011;15261;50.356;10.340;2023-04-25T12:01:55;5.97;;;2.55;;
27921;SDS011;15261;50.356;10.340;2023-04-25T12:04:23;6.05;;;2.65;;
27921;SDS011;15261;50.356;10.340;2023-04-25T12:06:51;3.15;;;2.40;;
27921;SDS011;15261;50.356;10.340;2023-04-25T13:05:32;13.55;;;3.78;;
27921;SDS011;15261;50.356;10.340;2023-04-25T13:07:58;15.50;;;9.82;;
27921;SDS011;15261;50.356;10.340;2023-04-25T13:10:24;8.10;;;4.00;;
27921;SDS011;15261;50.356;10.340;2023-04-25T13:12:50;10.48;;;3.90;;
27921;SDS011;15261;50.356;10.340;2023-04-25T13:15:15;7.65;;;3.53;;
27921;SDS011;15261;50.356;10.340;2023-04-25T13:17:41;10.95;;;3.17;;
27921;SDS011;15261;50.356;10.340;2023-04-25T13:20:09;19.90;;;3.80;;
27921;SDS011;15261;50.356;10.340;2023-04-25T13:22:37;9.82;;;3.17;;
27921;SDS011;15261;50.356;10.340;2023-04-25T13:25:06;11.73;;;3.50;;
27921;SDS011;15261;50.356;10.340;2023-04-25T13:27:33;12.40;;;3.33;;
27921;SDS011;15261;50.356;10.340;2023-04-25T13:30:00;8.95;;;3.05;;
27921;SDS011;15261;50.356;10.340;2023-04-25T13:32:31;14.57;;;4.00;;
27921;SDS011;15261;50.356;10.340;2023-04-25T13:35:01;5.53;;;2.42;;
27921;SDS011;15261;50.356;10.340;2023-04-25T13:37:31;10.05;;;2.72;;
27921;SDS011;15261;50.356;10.340;2023-04-25T13:40:01;14.32;;;3.60;;
27921;SDS011;15261;50.356;10.340;2023-04-25T13:42:29;18.98;;;3.72;;
27921;SDS011;15261;50.356;10.340;2023-04-25T13:44:58;5.85;;;2.83;;
27921;SDS011;15261;50.356;10.340;2023-04-25T13:47:23;8.55;;;2.80;;
27921;SDS011;15261;50.356;10.340;2023-04-25T13:49:50;10.65;;;4.75;;
27921;SDS011;15261;50.356;10.340;2023-04-25T13:52:16;11.52;;;3.40;;
27921;SDS011;15261;50.356;10.340;2023-04-25T13:54:41;8.77;;;3.03;;
27921;SDS011;15261;50.356;10.340;2023-04-25T13:57:07;5.97;;;2.63;;
27921;SDS011;15261;50.356;10.340;2023-04-25T13:59:33;14.05;;;3.03;;
27921;SDS011;15261;50.356;10.340;2023-04-25T14:01:58;8.60;;;2.95;;
27921;SDS011;15261;50.356;10.340;2023-04-25T14:04:24;6.10;;;2.45;;
27921;SDS011;15261;50.356;10.340;2023-04-25T14:06:50;7.20;;;2.80;;
27921;SDS011;15261;50.356;10.340;2023-04-25T14:09:16;6.45;;;2.65;;
27921;SDS011;15261;50.356;10.340;2023-04-25T14:11:42;13.02;;;2.63;;
27921;SDS011;15261;50.356;10.340;2023-04-25T14:14:08;7.53;;;2.78;;
27921;SDS011;15261;50.356;10.340;2023-04-25T14:16:34;7.80;;;2.83;;
27921;SDS011;15261;50.356;10.340;2023-04-25T14:19:00;7.80;;;2.90;;
27921;SDS011;15261;50.356;10.340;2023-04-25T14:21:26;7.97;;;2.85;;
27921;SDS011;15261;50.356;10.340;2023-04-25T14:23:53;14.05;;;3.25;;
27921;SDS011;15261;50.356;10.340;2023-04-25T14:26:19;4.18;;;2.30;;
27921;SDS011;15261;50.356;10.340;2023-04-25T14:28:44;4.60;;;2.42;;
27921;SDS011;15261;50.356;10.340;2023-04-25T14:31:10;11.93;;;2.92;;
27921;SDS011;15261;50.356;10.340;2023-04-25T14:33:35;5.50;;;2.60;;
27921;SDS011;15261;50.356;10.340;2023-04-25T14:36:04;15.93;;;3.42;;
27921;SDS011;15261;50.356;10.340;2023-04-25T14:38:30;8.60;;;3.10;;
27921;SDS011;15261;50.356;10.340;2023-04-25T14:40:56;6.85;;;2.47;;
27921;SDS011;15261;50.356;10.340;2023-04-25T14:43:22;6.82;;;2.85;;
27921;SDS011;15261;50.356;10.340;2023-04-25T14:45:47;11.60;;;2.65;;
27921;SDS011;15261;50.356;10.340;2023-04-25T14:48:13;25.92;;;3.53;;
27921;SDS011;15261;50.356;10.340;2023-04-25T14:50:40;8.65;;;2.90;;
27921;SDS011;15261;50.356;10.340;2023-04-25T14:53:05;6.63;;;2.58;;
27921;SDS011;15261;50.356;10.340;2023-04-25T14:55:31;6.25;;;2.60;;
27921;SDS011;15261;50.356;10.340;2023-04-25T14:57:57;4.43;;;2.60;;
27921;SDS011;15261;50.356;10.340;2023-04-25T15:00:22;7.45;;;2.60;;
27921;SDS011;15261;50.356;10.340;2023-04-25T15:02:50;6.28;;;2.90;;
27921;SDS011;15261;50.356;10.340;2023-04-25T15:05:16;6.18;;;2.80;;
27921;SDS011;15261;50.356;10.340;2023-04-25T15:07:42;7.85;;;2.80;;
27921;SDS011;15261;50.356;10.340;2023-04-25T15:10:07;6.70;;;2.20;;
27921;SDS011;15261;50.356;10.340;2023-04-25T15:12:38;10.45;;;3.08;;
27921;SDS011;15261;50.356;10.340;2023-04-25T15:15:05;8.05;;;2.50;;
27921;SDS011;15261;50.356;10.340;2023-04-25T15:17:36;6.57;;;2.50;;
27921;SDS011;15261;50.356;10.340;2023-04-25T15:20:19;10.48;;;4.75;;
27921;SDS011;15261;50.356;10.340;2023-04-25T15:22:52;8.95;;;3.15;;
27921;SDS011;15261;50.356;10.340;2023-04-25T15:25:21;12.70;;;3.05;;
27921;SDS011;15261;50.356;10.340;2023-04-25T15:27:47;9.13;;;2.72;;
27921;SDS011;15261;50.356;10.340;2023-04-25T15:30:16;10.95;;;2.80;;
27921;SDS011;15261;50.356;10.340;2023-04-25T15:32:43;7.65;;;2.97;;
27921;SDS011;15261;50.356;10.340;2023-04-25T15:35:09;7.28;;;4.15;;
27921;SDS011;15261;50.356;10.340;2023-04-25T15:37:36;9.63;;;2.88;;
27921;SDS011;15261;50.356;10.340;2023-04-25T15:40:15;6.55;;;2.63;;
27921;SDS011;15261;50.356;10.340;2023-04-25T15:42:42;9.40;;;2.80;;
27921;SDS011;15261;50.356;10.340;2023-04-25T15:45:11;5.20;;;2.75;;
27921;SDS011;15261;50.356;10.340;2023-04-25T15:47:38;9.43;;;2.80;;
27921;SDS011;15261;50.356;10.340;2023-04-25T15:50:05;7.07;;;2.55;;
27921;SDS011;15261;50.356;10.340;2023-04-25T15:52:33;5.05;;;2.67;;
27921;SDS011;15261;50.356;10.340;2023-04-25T15:55:00;7.80;;;2.47;;
27921;SDS011;15261;50.356;10.340;2023-04-25T15:57:26;4.68;;;2.70;;
27921;SDS011;15261;50.356;10.340;2023-04-25T15:59:52;12.13;;;2.80;;
27921;SDS011;15261;50.356;10.340;2023-04-25T16:02:17;11.25;;;3.35;;
27921;SDS011;15261;50.356;10.340;2023-04-25T16:04:44;7.45;;;2.50;;
27921;SDS011;15261;50.356;10.340;2023-04-25T16:07:11;4.97;;;2.40;;
27921;SDS011;15261;50.356;10.340;2023-04-25T16:09:37;24.85;;;3.80;;
27921;SDS011;15261;50.356;10.340;2023-04-25T16:12:03;9.18;;;2.63;;
27921;SDS011;15261;50.356;10.340;2023-04-25T16:24:59;6.03;;;2.58;;
27921;SDS011;15261;50.356;10.340;2023-04-25T16:36:20;6.32;;;2.40;;
27921;SDS011;15261;50.356;10.340;2023-04-25T16:38:46;5.15;;;2.58;;
27921;SDS011;15261;50.356;10.340;2023-04-25T16:41:11;8.57;;;2.60;;
27921;SDS011;15261;50.356;10.340;2023-04-25T16:43:46;8.02;;;2.83;;
27921;SDS011;15261;50.356;10.340;2023-04-25T16:46:21;5.75;;;2.53;;
27921;SDS011;15261;50.356;10.340;2023-04-25T16:48:47;3.33;;;2.08;;
27921;SDS011;15261;50.356;10.340;2023-04-25T16:51:14;5.53;;;2.20;;
27921;SDS011;15261;50.356;10.340;2023-04-25T16:53:40;6.68;;;2.47;;
27921;SDS011;15261;50.356;10.340;2023-04-25T16:56:06;6.88;;;2.20;;
27921;SDS011;15261;50.356;10.340;2023-04-25T16:58:33;5.95;;;2.25;;
27921;SDS011;15261;50.356;10.340;2023-04-25T17:00:59;5.93;;;2.42;;
27921;SDS011;15261;50.356;10.340;2023-04-25T17:03:25;6.05;;;2.35;;
27921;SDS011;15261;50.356;10.340;2023-04-25T17:05:52;5.47;;;2.28;;
27921;SDS011;15261;50.356;10.340;2023-04-25T17:08:21;9.63;;;3.10;;
27921;SDS011;15261;50.356;10.340;2023-04-25T17:10:48;5.70;;;2.95;;
27921;SDS011;15261;50.356;10.340;2023-04-25T17:13:16;4.80;;;2.47;;
27921;SDS011;15261;50.356;10.340;2023-04-25T17:15:42;8.93;;;2.67;;
27921;SDS011;15261;50.356;10.340;2023-04-25T17:18:08;6.13;;;2.47;;
27921;SDS011;15261;50.356;10.340;2023-04-25T17:20:33;4.63;;;2.40;;
27921;SDS011;15261;50.356;10.340;2023-04-25T17:22:59;6.57;;;2.25;;
27921;SDS011;15261;50.356;10.340;2023-04-25T17:25:25;7.53;;;2.70;;
27921;SDS011;15261;50.356;10.340;2023-04-25T17:27:50;5.45;;;2.40;;
27921;SDS011;15261;50.356;10.340;2023-04-25T17:30:17;9.52;;;2.30;;
27921;SDS011;15261;50.356;10.340;2023-04-25T17:32:43;7.30;;;2.30;;
27921;SDS011;15261;50.356;10.340;2023-04-25T17:35:08;5.25;;;2.40;;
27921;SDS011;15261;50.356;10.340;2023-04-25T17:37:34;6.40;;;2.60;;
27921;SDS011;15261;50.356;10.340;2023-04-25T17:39:59;6.57;;;2.60;;
27921;SDS011;15261;50.356;10.340;2023-04-25T17:42:26;6.93;;;2.50;;
27921;SDS011;15261;50.356;10.340;2023-04-25T17:44:52;6.60;;;2.75;;
27921;SDS011;15261;50.356;10.340;2023-04-25T17:47:19;5.90;;;2.60;;
27921;SDS011;15261;50.356;10.340;2023-04-25T17:49:45;6.25;;;2.58;;
27921;SDS011;15261;50.356;10.340;2023-04-25T17:52:11;9.45;;;2.80;;
27921;SDS011;15261;50.356;10.340;2023-04-25T17:54:36;6.50;;;2.70;;
27921;SDS011;15261;50.356;10.340;2023-04-25T17:57:02;7.63;;;2.50;;
27921;SDS011;15261;50.356;10.340;2023-04-25T17:59:28;8.20;;;2.63;;
27921;SDS011;15261;50.356;10.340;2023-04-25T18:01:54;8.15;;;2.72;;
27921;SDS011;15261;50.356;10.340;2023-04-25T18:04:22;7.40;;;2.63;;
27921;SDS011;15261;50.356;10.340;2023-04-25T18:06:48;13.07;;;2.65;;
27921;SDS011;15261;50.356;10.340;2023-04-25T18:09:13;5.50;;;2.38;;
27921;SDS011;15261;50.356;10.340;2023-04-25T18:11:45;6.18;;;2.65;;
27921;SDS011;15261;50.356;10.340;2023-04-25T18:14:12;5.35;;;2.63;;
27921;SDS011;15261;50.356;10.340;2023-04-25T18:16:50;7.78;;;2.63;;
27921;SDS011;15261;50.356;10.340;2023-04-25T18:19:17;9.73;;;2.97;;
27921;SDS011;15261;50.356;10.340;2023-04-25T18:21:47;5.00;;;2.67;;
27921;SDS011;15261;50.356;10.340;2023-04-25T18:24:14;4.13;;;2.20;;
27921;SDS011;15261;50.356;10.340;2023-04-25T18:26:44;6.28;;;2.58;;
27921;SDS011;15261;50.356;10.340;2023-04-25T18:29:12;8.10;;;2.70;;
27921;SDS011;15261;50.356;10.340;2023-04-25T18:31:38;4.65;;;2.50;;
27921;SDS011;15261;50.356;10.340;2023-04-25T18:34:04;4.53;;;2.42;;
27921;SDS011;15261;50.356;10.340;2023-04-25T18:36:29;5.63;;;2.20;;
27921;SDS011;15261;50.356;10.340;2023-04-25T18:38:55;5.18;;;2.42;;
27921;SDS011;15261;50.356;10.340;2023-04-25T18:41:22;4.13;;;2.30;;
27921;SDS011;15261;50.356;10.340;2023-04-25T18:43:48;6.13;;;2.55;;
27921;SDS011;15261;50.356;10.340;2023-04-25T18:46:15;17.60;;;9.43;;
27921;SDS011;15261;50.356;10.340;2023-04-25T18:48:41;19.90;;;8.50;;
27921;SDS011;15261;50.356;10.340;2023-04-25T18:51:07;12.13;;;4.60;;
27921;SDS011;15261;50.356;10.340;2023-04-25T18:53:33;6.95;;;3.00;;
27921;SDS011;15261;50.356;10.340;2023-04-25T18:55:59;7.25;;;3.28;;
27921;SDS011;15261;50.356;10.340;2023-04-25T18:58:25;7.75;;;2.90;;
27921;SDS011;15261;50.356;10.340;2023-04-25T19:00:50;6.00;;;2.75;;
27921;SDS011;15261;50.356;10.340;2023-04-25T19:03:16;5.97;;;2.40;;
27921;SDS011;15261;50.356;10.340;2023-04-25T19:05:41;4.82;;;2.45;;
27921;SDS011;15261;50.356;10.340;2023-04-25T19:08:07;6.28;;;2.35;;
27921;SDS011;15261;50.356;10.340;2023-04-25T19:10:32;11.77;;;3.30;;
27921;SDS011;15261;50.356;10.340;2023-04-25T19:12:58;6.20;;;3.30;;
27921;SDS011;15261;50.356;10.340;2023-04-25T19:15:24;9.25;;;3.03;;
27921;SDS011;15261;50.356;10.340;2023-04-25T19:17:50;8.63;;;2.90;;
27921;SDS011;15261;50.356;10.340;2023-04-25T19:20:16;5.85;;;2.80;;
27921;SDS011;15261;50.356;10.340;2023-04-25T19:22:41;7.13;;;2.90;;
27921;SDS011;15261;50.356;10.340;2023-04-25T19:25:07;5.90;;;2.78;;
27921;SDS011;15261;50.356;10.340;2023-04-25T19:27:33;7.47;;;2.90;;
27921;SDS011;15261;50.356;10.340;2023-04-25T19:29:58;9.43;;;3.20;;
27921;SDS011;15261;50.356;10.340;2023-04-25T19:32:32;7.65;;;2.90;;
27921;SDS011;15261;50.356;10.340;2023-04-25T19:34:58;6.82;;;3.08;;
27921;SDS011;15261;50.356;10.340;2023-04-25T19:37:24;4.95;;;2.55;;
27921;SDS011;15261;50.356;10.340;2023-04-25T19:39:50;5.22;;;2.92;;
27921;SDS011;15261;50.356;10.340;2023-04-25T19:42:16;6.63;;;2.85;;
27921;SDS011;15261;50.356;10.340;2023-04-25T19:44:43;6.13;;;2.65;;
27921;SDS011;15261;50.356;10.340;2023-04-25T19:47:09;14.02;;;3.47;;
27921;SDS011;15261;50.356;10.340;2023-04-25T19:49:35;8.98;;;3.25;;
27921;SDS011;15261;50.356;10.340;2023-04-25T19:52:03;6.93;;;2.95;;
27921;SDS011;15261;50.356;10.340;2023-04-25T19:54:31;7.00;;;3.22;;
27921;SDS011;15261;50.356;10.340;2023-04-25T19:56:58;6.07;;;2.88;;
27921;SDS011;15261;50.356;10.340;2023-04-25T19:59:24;4.50;;;3.23;;
27921;SDS011;15261;50.356;10.340;2023-04-25T20:01:49;12.35;;;6.80;;
27921;SDS011;15261;50.356;10.340;2023-04-25T20:04:15;19.13;;;12.30;;
27921;SDS011;15261;50.356;10.340;2023-04-25T20:06:42;16.83;;;11.10;;
27921;SDS011;15261;50.356;10.340;2023-04-25T20:09:08;25.80;;;16.85;;
27921;SDS011;15261;50.356;10.340;2023-04-25T20:14:32;9.65;;;5.13;;
27921;SDS011;15261;50.356;10.340;2023-04-25T20:16:58;13.35;;;5.03;;
27921;SDS011;15261;50.356;10.340;2023-04-25T20:19:23;22.08;;;12.45;;
27921;SDS011;15261;50.356;10.340;2023-04-25T20:21:49;22.17;;;11.73;;
27921;SDS011;15261;50.356;10.340;2023-04-25T20:24:15;24.95;;;14.13;;
27921;SDS011;15261;50.356;10.340;2023-04-25T20:26:40;23.42;;;12.00;;
27921;SDS011;15261;50.356;10.340;2023-04-25T20:29:06;12.05;;;7.15;;
27921;SDS011;15261;50.356;10.340;2023-04-25T20:31:47;13.30;;;6.88;;
27921;SDS011;15261;50.356;10.340;2023-04-25T20:34:14;12.57;;;7.07;;
27921;SDS011;15261;50.356;10.340;2023-04-25T20:36:43;13.65;;;6.57;;